TLPCTFFR

Guest
Details From TLPC - Castries/George F L Charles
To TFFR - Pointe a Pitre Le Raizet
Flight Number -
Tags generated
Created
Modified
Stats Distance 139 nm / 257 km
Max Altitude 9,600 ft / 2,926 m
Waypoints 3
Social Downloads 1
Likes 0
Share VATSIM

Download

Looking for another format? Having issues loading an existing format? Contact us
Advertisement - Login to hide

Notes

Basic altitude profile: - Ascent Rate: 2500ft/min - Ascent Speed: 250kts - Cruise Altitude: 35000ft - Cruise Speed: 420kts - Descent Rate: 1500ft/min - Descent Speed: 250kts Options: - Use NATs: yes - Use PACOTS: yes - Use low airways: yes - Use high airways: no

Route

TLPC DOM TFFR

ID Type Via Altitude Latitude Longitude Leg Dist Tot Dist Heading (true) Name
O TLPC APT - 0 ft / 0 m 14.01970˚ -60.99339˚ - 0 nm - Castries/George F L Charles
DOM NDB - 9,600 ft / 2,926 m 15.55094˚ -61.29564˚ 93 nm 93 nm 349° / 349° MELVILLE HALL NDB
O TFFR APT - 0 ft / 0 m 16.26531˚ -61.53181˚ 45 nm 138 nm 342° / 342° Pointe a Pitre Le Raizet

Altitude Profile

Advertisement - Login to hide

TLPC

Details ICAO TLPC (SLU)
Name Castries/George F L Charles
Region Saint Lucia
Timezone America/St_Lucia (UTC-4.0)
Stats Elevation 22 ft / 7 m (AMSL)
Location 14.019704° -60.993394°
Runways 1
Magnetic Variation 15.090° W

METAR

TLPC 240000Z 11011G21KT 8000 -SHRA BKN020 27/24 Q1016 TEMPO SHRA

Decode

TAF

TAF TAF TLPC 232300Z 2400/2424 09012G25KT 9999 SCT025 TEMPO 2400/2412 SHRA

Decode

Departure Runways

ID Width Length Bearing (true) Bearing (mag) Surface Threshold Offset Overrun Length
09 148 ft / 45 m 5,731 ft / 1,747 m 75.34° 90.43° Asphalt 400 ft / 122 m 0 ft / 0 m
27 148 ft / 45 m 5,731 ft / 1,747 m 255.34° 270.43° Asphalt 925 ft / 282 m 0 ft / 0 m

TFFR

Details ICAO TFFR (PTP)
Name Pointe a Pitre Le Raizet
Region France (Guadeloupe, Martinique, Saint Barthélemy, Saint Martin)
Timezone America/Guadeloupe (UTC-4.0)
Stats Elevation 35 ft / 11 m (AMSL)
Location 16.265306° -61.531808°
Runways 1
Magnetic Variation 14.870° W

METAR

TFFR 240130Z AUTO 09007KT 070V130 CAVOK 27/22 Q1018 TEMPO 4000 SHRA BKN015TCU

Decode

TAF

Not found

Destination Runways

ID Width Length Bearing (true) Bearing (mag) Surface Threshold Offset Overrun Length
11 148 ft / 45 m 11,513 ft / 3,509 m 100.94° 115.81° Asphalt 0 ft / 0 m 0 ft / 0 m
29 148 ft / 45 m 11,513 ft / 3,509 m 280.95° 295.82° Asphalt 0 ft / 0 m 0 ft / 0 m

Approach Navaids

Runway Type Ident Frequency Range Bearing (true) Bearing (mag) Slope Elevation
11 Localiser PP 110.30 MHz 18 nm / 33 km 100.95° 115.82° - 36 ft / 11 m (AMSL)
11 Glidescope PP 110.30 MHz 10 nm / 19 km 100.94° 115.81° 3.20° 36 ft / 11 m (AMSL)

Popular Alternatives